sensor_id;sensor_type;location;lat;lon;timestamp;P1;durP1;ratioP1;P2;durP2;ratioP2
41817;SDS011;27493;51.730;5.294;2022-07-05T00:00:30;8.40;;;7.50;;
41817;SDS011;27493;51.730;5.294;2022-07-05T00:02:55;9.97;;;7.87;;
41817;SDS011;27493;51.730;5.294;2022-07-05T00:05:21;10.07;;;7.47;;
41817;SDS011;27493;51.730;5.294;2022-07-05T00:07:46;12.47;;;7.80;;
41817;SDS011;27493;51.730;5.294;2022-07-05T00:10:11;11.53;;;8.53;;
41817;SDS011;27493;51.730;5.294;2022-07-05T00:12:37;10.27;;;8.00;;
41817;SDS011;27493;51.730;5.294;2022-07-05T00:15:02;8.83;;;7.43;;
41817;SDS011;27493;51.730;5.294;2022-07-05T00:17:28;8.83;;;7.83;;
41817;SDS011;27493;51.730;5.294;2022-07-05T00:19:53;9.00;;;8.07;;
41817;SDS011;27493;51.730;5.294;2022-07-05T00:22:18;8.47;;;7.20;;
41817;SDS011;27493;51.730;5.294;2022-07-05T00:24:43;11.83;;;7.77;;
41817;SDS011;27493;51.730;5.294;2022-07-05T00:27:09;9.87;;;7.43;;
41817;SDS011;27493;51.730;5.294;2022-07-05T00:29:34;8.17;;;7.37;;
41817;SDS011;27493;51.730;5.294;2022-07-05T00:31:59;11.43;;;8.00;;
41817;SDS011;27493;51.730;5.294;2022-07-05T00:34:24;8.63;;;7.70;;
41817;SDS011;27493;51.730;5.294;2022-07-05T00:36:50;12.87;;;8.03;;
41817;SDS011;27493;51.730;5.294;2022-07-05T00:39:15;8.73;;;7.83;;
41817;SDS011;27493;51.730;5.294;2022-07-05T00:41:41;9.67;;;8.20;;
41817;SDS011;27493;51.730;5.294;2022-07-05T00:44:08;9.70;;;8.07;;
41817;SDS011;27493;51.730;5.294;2022-07-05T00:46:34;8.70;;;7.80;;
41817;SDS011;27493;51.730;5.294;2022-07-05T00:48:59;9.27;;;7.37;;
41817;SDS011;27493;51.730;5.294;2022-07-05T00:51:25;10.43;;;8.10;;
41817;SDS011;27493;51.730;5.294;2022-07-05T00:53:51;12.00;;;8.93;;
41817;SDS011;27493;51.730;5.294;2022-07-05T00:56:17;12.53;;;9.13;;
41817;SDS011;27493;51.730;5.294;2022-07-05T00:58:42;12.20;;;8.77;;
41817;SDS011;27493;51.730;5.294;2022-07-05T01:01:08;10.10;;;8.57;;
41817;SDS011;27493;51.730;5.294;2022-07-05T01:03:34;10.17;;;8.10;;
41817;SDS011;27493;51.730;5.294;2022-07-05T01:06:00;10.77;;;8.93;;
41817;SDS011;27493;51.730;5.294;2022-07-05T01:08:26;15.37;;;9.70;;
41817;SDS011;27493;51.730;5.294;2022-07-05T01:10:52;12.30;;;9.70;;
41817;SDS011;27493;51.730;5.294;2022-07-05T01:13:22;11.37;;;9.97;;
41817;SDS011;27493;51.730;5.294;2022-07-05T01:15:47;12.17;;;9.40;;
41817;SDS011;27493;51.730;5.294;2022-07-05T01:18:13;12.80;;;9.67;;
41817;SDS011;27493;51.730;5.294;2022-07-05T01:20:38;11.83;;;10.30;;
41817;SDS011;27493;51.730;5.294;2022-07-05T01:23:04;11.67;;;9.40;;
41817;SDS011;27493;51.730;5.294;2022-07-05T01:25:29;10.20;;;9.20;;
41817;SDS011;27493;51.730;5.294;2022-07-05T01:27:55;11.57;;;9.97;;
41817;SDS011;27493;51.730;5.294;2022-07-05T01:30:22;12.87;;;10.13;;
41817;SDS011;27493;51.730;5.294;2022-07-05T01:32:47;11.63;;;10.13;;
41817;SDS011;27493;51.730;5.294;2022-07-05T01:35:13;13.03;;;10.07;;
41817;SDS011;27493;51.730;5.294;2022-07-05T01:37:38;11.37;;;10.27;;
41817;SDS011;27493;51.730;5.294;2022-07-05T01:40:04;11.57;;;10.33;;
41817;SDS011;27493;51.730;5.294;2022-07-05T01:42:30;11.90;;;10.57;;
41817;SDS011;27493;51.730;5.294;2022-07-05T01:44:55;12.63;;;11.30;;
41817;SDS011;27493;51.730;5.294;2022-07-05T01:47:21;11.57;;;9.97;;
41817;SDS011;27493;51.730;5.294;2022-07-05T01:49:47;12.00;;;10.53;;
41817;SDS011;27493;51.730;5.294;2022-07-05T01:52:13;14.33;;;11.30;;
41817;SDS011;27493;51.730;5.294;2022-07-05T01:54:39;13.53;;;11.00;;
41817;SDS011;27493;51.730;5.294;2022-07-05T01:57:05;12.90;;;10.30;;
41817;SDS011;27493;51.730;5.294;2022-07-05T01:59:31;13.40;;;10.50;;
41817;SDS011;27493;51.730;5.294;2022-07-05T02:01:57;12.33;;;10.63;;
41817;SDS011;27493;51.730;5.294;2022-07-05T02:04:22;17.17;;;11.67;;
41817;SDS011;27493;51.730;5.294;2022-07-05T02:06:48;10.63;;;9.53;;
41817;SDS011;27493;51.730;5.294;2022-07-05T02:09:13;11.60;;;10.40;;
41817;SDS011;27493;51.730;5.294;2022-07-05T02:11:38;11.27;;;10.00;;
41817;SDS011;27493;51.730;5.294;2022-07-05T02:14:04;12.23;;;10.40;;
41817;SDS011;27493;51.730;5.294;2022-07-05T02:16:29;13.00;;;10.33;;
41817;SDS011;27493;51.730;5.294;2022-07-05T02:18:55;13.43;;;11.20;;
41817;SDS011;27493;51.730;5.294;2022-07-05T02:21:20;16.37;;;10.97;;
41817;SDS011;27493;51.730;5.294;2022-07-05T02:23:46;10.83;;;9.73;;
41817;SDS011;27493;51.730;5.294;2022-07-05T02:26:11;11.73;;;10.50;;
41817;SDS011;27493;51.730;5.294;2022-07-05T02:28:36;14.00;;;11.40;;
41817;SDS011;27493;51.730;5.294;2022-07-05T02:31:02;16.03;;;11.13;;
41817;SDS011;27493;51.730;5.294;2022-07-05T02:33:27;15.20;;;11.03;;
41817;SDS011;27493;51.730;5.294;2022-07-05T02:35:52;13.00;;;11.23;;
41817;SDS011;27493;51.730;5.294;2022-07-05T02:38:18;13.47;;;11.10;;
41817;SDS011;27493;51.730;5.294;2022-07-05T02:40:43;13.53;;;11.23;;
41817;SDS011;27493;51.730;5.294;2022-07-05T02:43:08;15.97;;;11.00;;
41817;SDS011;27493;51.730;5.294;2022-07-05T02:45:33;12.90;;;10.77;;
41817;SDS011;27493;51.730;5.294;2022-07-05T02:47:59;12.20;;;10.93;;
41817;SDS011;27493;51.730;5.294;2022-07-05T02:50:24;16.57;;;11.37;;
41817;SDS011;27493;51.730;5.294;2022-07-05T02:52:50;15.57;;;11.23;;
41817;SDS011;27493;51.730;5.294;2022-07-05T02:55:15;12.40;;;10.67;;
41817;SDS011;27493;51.730;5.294;2022-07-05T02:57:41;13.00;;;9.77;;
41817;SDS011;27493;51.730;5.294;2022-07-05T03:00:06;12.03;;;10.00;;
41817;SDS011;27493;51.730;5.294;2022-07-05T03:02:32;11.50;;;9.40;;
41817;SDS011;27493;51.730;5.294;2022-07-05T03:04:57;10.10;;;8.67;;
41817;SDS011;27493;51.730;5.294;2022-07-05T03:07:22;11.77;;;9.50;;
41817;SDS011;27493;51.730;5.294;2022-07-05T03:09:48;10.63;;;9.43;;
41817;SDS011;27493;51.730;5.294;2022-07-05T03:12:13;11.63;;;9.00;;
41817;SDS011;27493;51.730;5.294;2022-07-05T03:14:38;10.70;;;9.17;;
41817;SDS011;27493;51.730;5.294;2022-07-05T03:17:03;9.97;;;8.47;;
41817;SDS011;27493;51.730;5.294;2022-07-05T03:19:29;11.10;;;9.57;;
41817;SDS011;27493;51.730;5.294;2022-07-05T03:21:54;11.73;;;9.47;;
41817;SDS011;27493;51.730;5.294;2022-07-05T03:24:19;12.13;;;9.20;;
41817;SDS011;27493;51.730;5.294;2022-07-05T03:26:44;11.47;;;10.03;;
41817;SDS011;27493;51.730;5.294;2022-07-05T03:29:10;12.67;;;10.20;;
41817;SDS011;27493;51.730;5.294;2022-07-05T03:31:35;12.03;;;9.70;;
41817;SDS011;27493;51.730;5.294;2022-07-05T03:34:00;11.07;;;9.83;;
41817;SDS011;27493;51.730;5.294;2022-07-05T03:36:26;11.43;;;9.60;;
41817;SDS011;27493;51.730;5.294;2022-07-05T03:38:51;10.40;;;8.90;;
41817;SDS011;27493;51.730;5.294;2022-07-05T03:41:17;11.10;;;9.43;;
41817;SDS011;27493;51.730;5.294;2022-07-05T03:43:42;11.03;;;9.33;;
41817;SDS011;27493;51.730;5.294;2022-07-05T03:46:07;13.63;;;8.57;;
41817;SDS011;27493;51.730;5.294;2022-07-05T03:48:33;13.40;;;9.67;;
41817;SDS011;27493;51.730;5.294;2022-07-05T03:50:58;11.63;;;9.17;;
41817;SDS011;27493;51.730;5.294;2022-07-05T03:53:23;13.17;;;9.50;;
41817;SDS011;27493;51.730;5.294;2022-07-05T03:55:48;13.80;;;9.60;;
41817;SDS011;27493;51.730;5.294;2022-07-05T03:58:14;11.97;;;9.03;;
41817;SDS011;27493;51.730;5.294;2022-07-05T04:00:39;12.57;;;10.00;;
41817;SDS011;27493;51.730;5.294;2022-07-05T04:03:04;11.30;;;8.73;;
41817;SDS011;27493;51.730;5.294;2022-07-05T04:05:30;10.33;;;9.07;;
41817;SDS011;27493;51.730;5.294;2022-07-05T04:07:55;11.90;;;9.73;;
41817;SDS011;27493;51.730;5.294;2022-07-05T04:10:20;12.23;;;9.07;;
41817;SDS011;27493;51.730;5.294;2022-07-05T04:12:46;12.77;;;9.47;;
41817;SDS011;27493;51.730;5.294;2022-07-05T04:15:12;10.63;;;9.53;;
41817;SDS011;27493;51.730;5.294;2022-07-05T04:20:12;13.07;;;9.40;;
41817;SDS011;27493;51.730;5.294;2022-07-05T04:22:37;12.63;;;9.77;;
41817;SDS011;27493;51.730;5.294;2022-07-05T04:25:02;12.73;;;10.00;;
41817;SDS011;27493;51.730;5.294;2022-07-05T04:30:08;12.20;;;9.80;;
41817;SDS011;27493;51.730;5.294;2022-07-05T04:32:34;17.23;;;9.70;;
41817;SDS011;27493;51.730;5.294;2022-07-05T04:35:02;14.77;;;9.70;;
41817;SDS011;27493;51.730;5.294;2022-07-05T04:37:27;11.97;;;8.57;;
41817;SDS011;27493;51.730;5.294;2022-07-05T04:39:52;10.63;;;9.20;;
41817;SDS011;27493;51.730;5.294;2022-07-05T04:42:18;10.40;;;9.00;;
41817;SDS011;27493;51.730;5.294;2022-07-05T04:44:43;13.67;;;9.27;;
41817;SDS011;27493;51.730;5.294;2022-07-05T04:47:08;11.00;;;9.20;;
41817;SDS011;27493;51.730;5.294;2022-07-05T04:49:33;10.03;;;9.00;;
41817;SDS011;27493;51.730;5.294;2022-07-05T04:51:59;12.67;;;9.63;;
41817;SDS011;27493;51.730;5.294;2022-07-05T04:54:24;13.53;;;10.17;;
41817;SDS011;27493;51.730;5.294;2022-07-05T04:56:49;14.70;;;10.73;;
41817;SDS011;27493;51.730;5.294;2022-07-05T04:59:14;11.80;;;9.07;;
41817;SDS011;27493;51.730;5.294;2022-07-05T05:01:40;14.33;;;10.40;;
41817;SDS011;27493;51.730;5.294;2022-07-05T05:04:05;14.83;;;10.80;;
41817;SDS011;27493;51.730;5.294;2022-07-05T05:06:30;12.70;;;9.70;;
41817;SDS011;27493;51.730;5.294;2022-07-05T05:08:55;15.30;;;9.23;;
41817;SDS011;27493;51.730;5.294;2022-07-05T05:11:21;13.73;;;10.27;;
41817;SDS011;27493;51.730;5.294;2022-07-05T05:13:46;13.90;;;9.63;;
41817;SDS011;27493;51.730;5.294;2022-07-05T05:16:12;14.17;;;9.47;;
41817;SDS011;27493;51.730;5.294;2022-07-05T05:18:39;12.70;;;9.47;;
41817;SDS011;27493;51.730;5.294;2022-07-05T05:21:05;13.00;;;9.10;;
41817;SDS011;27493;51.730;5.294;2022-07-05T05:23:30;12.30;;;9.30;;
41817;SDS011;27493;51.730;5.294;2022-07-05T05:25:55;12.00;;;9.27;;
41817;SDS011;27493;51.730;5.294;2022-07-05T05:28:20;11.27;;;9.10;;
41817;SDS011;27493;51.730;5.294;2022-07-05T05:30:46;11.17;;;8.70;;
41817;SDS011;27493;51.730;5.294;2022-07-05T05:33:12;11.27;;;8.53;;
41817;SDS011;27493;51.730;5.294;2022-07-05T05:35:37;11.77;;;8.67;;
41817;SDS011;27493;51.730;5.294;2022-07-05T05:38:02;10.97;;;8.33;;
41817;SDS011;27493;51.730;5.294;2022-07-05T05:40:27;13.60;;;9.30;;
41817;SDS011;27493;51.730;5.294;2022-07-05T05:42:53;15.13;;;9.57;;
41817;SDS011;27493;51.730;5.294;2022-07-05T05:45:19;11.80;;;9.60;;
41817;SDS011;27493;51.730;5.294;2022-07-05T05:50:10;18.87;;;10.47;;
41817;SDS011;27493;51.730;5.294;2022-07-05T05:52:35;19.60;;;11.17;;
41817;SDS011;27493;51.730;5.294;2022-07-05T05:55:00;13.77;;;9.23;;
41817;SDS011;27493;51.730;5.294;2022-07-05T05:57:26;12.27;;;8.97;;
41817;SDS011;27493;51.730;5.294;2022-07-05T05:59:51;16.67;;;9.70;;
41817;SDS011;27493;51.730;5.294;2022-07-05T06:02:16;15.33;;;9.37;;
41817;SDS011;27493;51.730;5.294;2022-07-05T06:04:41;13.90;;;8.73;;
41817;SDS011;27493;51.730;5.294;2022-07-05T06:07:07;13.13;;;9.37;;
41817;SDS011;27493;51.730;5.294;2022-07-05T06:09:32;10.03;;;8.90;;
41817;SDS011;27493;51.730;5.294;2022-07-05T06:11:57;15.60;;;9.23;;
41817;SDS011;27493;51.730;5.294;2022-07-05T06:14:22;15.83;;;10.30;;
41817;SDS011;27493;51.730;5.294;2022-07-05T06:16:47;10.73;;;9.60;;
41817;SDS011;27493;51.730;5.294;2022-07-05T06:19:13;14.57;;;10.17;;
41817;SDS011;27493;51.730;5.294;2022-07-05T06:21:38;16.23;;;10.17;;
41817;SDS011;27493;51.730;5.294;2022-07-05T06:24:03;13.77;;;9.00;;
41817;SDS011;27493;51.730;5.294;2022-07-05T06:26:28;13.37;;;8.57;;
41817;SDS011;27493;51.730;5.294;2022-07-05T06:28:53;16.67;;;7.57;;
41817;SDS011;27493;51.730;5.294;2022-07-05T06:31:19;14.80;;;8.23;;
41817;SDS011;27493;51.730;5.294;2022-07-05T06:33:44;12.60;;;7.63;;
41817;SDS011;27493;51.730;5.294;2022-07-05T06:36:09;17.37;;;8.87;;
41817;SDS011;27493;51.730;5.294;2022-07-05T06:38:34;14.67;;;7.97;;
41817;SDS011;27493;51.730;5.294;2022-07-05T06:41:00;13.00;;;6.70;;
41817;SDS011;27493;51.730;5.294;2022-07-05T06:43:25;14.93;;;6.73;;
41817;SDS011;27493;51.730;5.294;2022-07-05T06:45:50;12.10;;;6.30;;
41817;SDS011;27493;51.730;5.294;2022-07-05T06:48:16;8.33;;;5.40;;
41817;SDS011;27493;51.730;5.294;2022-07-05T06:50:42;7.87;;;5.60;;
41817;SDS011;27493;51.730;5.294;2022-07-05T06:53:08;12.57;;;6.90;;
41817;SDS011;27493;51.730;5.294;2022-07-05T06:55:34;8.10;;;6.30;;
41817;SDS011;27493;51.730;5.294;2022-07-05T06:58:00;10.97;;;7.07;;
41817;SDS011;27493;51.730;5.294;2022-07-05T07:00:26;10.17;;;6.03;;
41817;SDS011;27493;51.730;5.294;2022-07-05T07:02:51;11.33;;;5.80;;
41817;SDS011;27493;51.730;5.294;2022-07-05T07:05:17;8.43;;;5.33;;
41817;SDS011;27493;51.730;5.294;2022-07-05T07:07:42;9.90;;;4.63;;
41817;SDS011;27493;51.730;5.294;2022-07-05T07:10:26;10.50;;;6.13;;
41817;SDS011;27493;51.730;5.294;2022-07-05T07:12:51;8.70;;;5.60;;
41817;SDS011;27493;51.730;5.294;2022-07-05T07:15:17;15.50;;;10.80;;
41817;SDS011;27493;51.730;5.294;2022-07-05T07:17:42;14.00;;;7.97;;
41817;SDS011;27493;51.730;5.294;2022-07-05T07:20:07;13.77;;;5.67;;
41817;SDS011;27493;51.730;5.294;2022-07-05T07:22:33;8.40;;;5.63;;
41817;SDS011;27493;51.730;5.294;2022-07-05T07:24:58;11.07;;;5.63;;
41817;SDS011;27493;51.730;5.294;2022-07-05T07:27:23;12.40;;;5.07;;
41817;SDS011;27493;51.730;5.294;2022-07-05T07:29:48;11.93;;;5.90;;
41817;SDS011;27493;51.730;5.294;2022-07-05T07:32:14;11.10;;;5.33;;
41817;SDS011;27493;51.730;5.294;2022-07-05T07:34:39;8.57;;;5.30;;
41817;SDS011;27493;51.730;5.294;2022-07-05T07:37:05;9.97;;;6.40;;
41817;SDS011;27493;51.730;5.294;2022-07-05T07:39:30;9.93;;;6.50;;
41817;SDS011;27493;51.730;5.294;2022-07-05T07:41:58;8.87;;;6.47;;
41817;SDS011;27493;51.730;5.294;2022-07-05T07:44:24;10.80;;;6.03;;
41817;SDS011;27493;51.730;5.294;2022-07-05T07:46:49;10.87;;;5.83;;
41817;SDS011;27493;51.730;5.294;2022-07-05T07:49:15;13.30;;;5.47;;
41817;SDS011;27493;51.730;5.294;2022-07-05T07:51:40;14.20;;;6.53;;
41817;SDS011;27493;51.730;5.294;2022-07-05T07:54:06;11.03;;;4.67;;
41817;SDS011;27493;51.730;5.294;2022-07-05T07:56:31;9.67;;;5.00;;
41817;SDS011;27493;51.730;5.294;2022-07-05T07:58:56;6.53;;;4.00;;
41817;SDS011;27493;51.730;5.294;2022-07-05T08:01:22;17.73;;;5.87;;
41817;SDS011;27493;51.730;5.294;2022-07-05T08:03:47;12.47;;;7.30;;
41817;SDS011;27493;51.730;5.294;2022-07-05T08:06:13;12.57;;;7.30;;
41817;SDS011;27493;51.730;5.294;2022-07-05T08:08:38;10.07;;;7.60;;
41817;SDS011;27493;51.730;5.294;2022-07-05T08:11:04;15.67;;;9.03;;
41817;SDS011;27493;51.730;5.294;2022-07-05T08:13:29;13.80;;;7.73;;
41817;SDS011;27493;51.730;5.294;2022-07-05T08:15:55;11.10;;;7.03;;
41817;SDS011;27493;51.730;5.294;2022-07-05T08:18:20;10.20;;;6.43;;
41817;SDS011;27493;51.730;5.294;2022-07-05T08:21:04;13.93;;;7.50;;
41817;SDS011;27493;51.730;5.294;2022-07-05T08:23:48;12.80;;;8.53;;
41817;SDS011;27493;51.730;5.294;2022-07-05T08:26:13;12.00;;;8.23;;
41817;SDS011;27493;51.730;5.294;2022-07-05T08:28:38;13.10;;;7.57;;
41817;SDS011;27493;51.730;5.294;2022-07-05T08:31:03;11.30;;;7.50;;
41817;SDS011;27493;51.730;5.294;2022-07-05T08:33:29;14.17;;;8.07;;
41817;SDS011;27493;51.730;5.294;2022-07-05T08:35:54;12.47;;;8.90;;
41817;SDS011;27493;51.730;5.294;2022-07-05T08:38:19;11.53;;;8.00;;
41817;SDS011;27493;51.730;5.294;2022-07-05T08:40:45;19.37;;;8.80;;
41817;SDS011;27493;51.730;5.294;2022-07-05T08:43:11;11.70;;;6.27;;
41817;SDS011;27493;51.730;5.294;2022-07-05T08:45:37;13.00;;;6.97;;
41817;SDS011;27493;51.730;5.294;2022-07-05T08:48:03;10.63;;;5.43;;
41817;SDS011;27493;51.730;5.294;2022-07-05T08:50:29;10.27;;;5.57;;
41817;SDS011;27493;51.730;5.294;2022-07-05T08:52:55;8.33;;;4.73;;
41817;SDS011;27493;51.730;5.294;2022-07-05T08:55:21;14.33;;;4.73;;
41817;SDS011;27493;51.730;5.294;2022-07-05T08:57:47;8.60;;;3.87;;
41817;SDS011;27493;51.730;5.294;2022-07-05T09:00:12;11.40;;;4.93;;
41817;SDS011;27493;51.730;5.294;2022-07-05T09:02:38;7.20;;;4.10;;
41817;SDS011;27493;51.730;5.294;2022-07-05T09:05:03;6.80;;;4.63;;
41817;SDS011;27493;51.730;5.294;2022-07-05T09:07:29;7.77;;;4.20;;
41817;SDS011;27493;51.730;5.294;2022-07-05T09:09:56;9.00;;;4.30;;
41817;SDS011;27493;51.730;5.294;2022-07-05T09:12:24;6.93;;;4.00;;
41817;SDS011;27493;51.730;5.294;2022-07-05T09:14:49;15.70;;;4.93;;
41817;SDS011;27493;51.730;5.294;2022-07-05T09:17:15;8.60;;;4.43;;
41817;SDS011;27493;51.730;5.294;2022-07-05T09:19:40;7.60;;;4.80;;
41817;SDS011;27493;51.730;5.294;2022-07-05T09:22:06;7.97;;;5.30;;
41817;SDS011;27493;51.730;5.294;2022-07-05T09:24:41;6.53;;;4.83;;
41817;SDS011;27493;51.730;5.294;2022-07-05T09:27:07;14.87;;;4.93;;
41817;SDS011;27493;51.730;5.294;2022-07-05T09:29:32;5.63;;;3.80;;
41817;SDS011;27493;51.730;5.294;2022-07-05T09:31:57;9.87;;;4.30;;
41817;SDS011;27493;51.730;5.294;2022-07-05T09:34:22;6.77;;;4.30;;
41817;SDS011;27493;51.730;5.294;2022-07-05T09:36:55;9.93;;;4.03;;
41817;SDS011;27493;51.730;5.294;2022-07-05T09:44:41;5.97;;;3.17;;
41817;SDS011;27493;51.730;5.294;2022-07-05T09:47:11;6.43;;;3.80;;
41817;SDS011;27493;51.730;5.294;2022-07-05T09:49:43;6.93;;;3.60;;
41817;SDS011;27493;51.730;5.294;2022-07-05T09:52:09;8.57;;;3.30;;
41817;SDS011;27493;51.730;5.294;2022-07-05T09:54:34;7.60;;;3.40;;
41817;SDS011;27493;51.730;5.294;2022-07-05T09:56:59;4.80;;;3.07;;
41817;SDS011;27493;51.730;5.294;2022-07-05T09:59:25;7.80;;;3.03;;
41817;SDS011;27493;51.730;5.294;2022-07-05T10:01:50;6.47;;;2.90;;
41817;SDS011;27493;51.730;5.294;2022-07-05T10:04:16;5.93;;;3.50;;
41817;SDS011;27493;51.730;5.294;2022-07-05T10:06:41;5.43;;;3.53;;
41817;SDS011;27493;51.730;5.294;2022-07-05T10:09:08;6.30;;;4.63;;
41817;SDS011;27493;51.730;5.294;2022-07-05T10:11:33;6.40;;;4.47;;
41817;SDS011;27493;51.730;5.294;2022-07-05T10:13:59;6.47;;;4.17;;
41817;SDS011;27493;51.730;5.294;2022-07-05T10:16:26;6.27;;;4.50;;
41817;SDS011;27493;51.730;5.294;2022-07-05T10:18:51;8.40;;;5.40;;
41817;SDS011;27493;51.730;5.294;2022-07-05T10:21:17;6.67;;;5.63;;
41817;SDS011;27493;51.730;5.294;2022-07-05T10:23:43;10.07;;;6.13;;
41817;SDS011;27493;51.730;5.294;2022-07-05T10:26:09;10.30;;;6.20;;
41817;SDS011;27493;51.730;5.294;2022-07-05T10:28:35;7.87;;;6.17;;
41817;SDS011;27493;51.730;5.294;2022-07-05T10:31:02;9.23;;;7.33;;
41817;SDS011;27493;51.730;5.294;2022-07-05T10:33:27;8.60;;;5.60;;
41817;SDS011;27493;51.730;5.294;2022-07-05T10:35:54;7.20;;;4.67;;
41817;SDS011;27493;51.730;5.294;2022-07-05T10:38:19;5.60;;;4.80;;
41817;SDS011;27493;51.730;5.294;2022-07-05T10:40:50;8.03;;;4.93;;
41817;SDS011;27493;51.730;5.294;2022-07-05T10:43:16;7.40;;;4.70;;
41817;SDS011;27493;51.730;5.294;2022-07-05T10:45:48;5.73;;;4.50;;
41817;SDS011;27493;51.730;5.294;2022-07-05T10:48:21;5.50;;;3.93;;
41817;SDS011;27493;51.730;5.294;2022-07-05T10:50:56;6.17;;;4.20;;
41817;SDS011;27493;51.730;5.294;2022-07-05T10:53:26;6.13;;;3.90;;
41817;SDS011;27493;51.730;5.294;2022-07-05T10:58:26;3.80;;;3.00;;
41817;SDS011;27493;51.730;5.294;2022-07-05T11:03:37;5.45;;;2.90;;
41817;SDS011;27493;51.730;5.294;2022-07-05T11:06:03;3.70;;;2.97;;
41817;SDS011;27493;51.730;5.294;2022-07-05T11:08:30;5.00;;;2.63;;
41817;SDS011;27493;51.730;5.294;2022-07-05T11:11:10;3.42;;;2.33;;
41817;SDS011;27493;51.730;5.294;2022-07-05T11:13:37;5.22;;;3.28;;
41817;SDS011;27493;51.730;5.294;2022-07-05T11:18:47;3.43;;;2.00;;
41817;SDS011;27493;51.730;5.294;2022-07-05T11:21:17;2.60;;;1.67;;
41817;SDS011;27493;51.730;5.294;2022-07-05T11:23:42;2.25;;;2.00;;
41817;SDS011;27493;51.730;5.294;2022-07-05T11:26:08;4.07;;;1.48;;
41817;SDS011;27493;51.730;5.294;2022-07-05T11:28:46;6.80;;;2.13;;
41817;SDS011;27493;51.730;5.294;2022-07-05T11:31:12;4.43;;;2.60;;
41817;SDS011;27493;51.730;5.294;2022-07-05T11:36:05;6.35;;;2.15;;
41817;SDS011;27493;51.730;5.294;2022-07-05T11:38:31;8.15;;;2.58;;
41817;SDS011;27493;51.730;5.294;2022-07-05T11:41:10;6.53;;;2.40;;
41817;SDS011;27493;51.730;5.294;2022-07-05T11:43:35;2.80;;;2.30;;
41817;SDS011;27493;51.730;5.294;2022-07-05T11:46:00;3.25;;;1.98;;
41817;SDS011;27493;51.730;5.294;2022-07-05T11:48:26;3.70;;;2.63;;
41817;SDS011;27493;51.730;5.294;2022-07-05T11:50:52;4.32;;;2.35;;
41817;SDS011;27493;51.730;5.294;2022-07-05T11:53:28;5.88;;;2.30;;
41817;SDS011;27493;51.730;5.294;2022-07-05T11:55:54;3.58;;;1.98;;
41817;SDS011;27493;51.730;5.294;2022-07-05T11:58:20;4.18;;;2.08;;
41817;SDS011;27493;51.730;5.294;2022-07-05T12:00:45;4.18;;;1.88;;
41817;SDS011;27493;51.730;5.294;2022-07-05T12:03:18;4.95;;;1.88;;
41817;SDS011;27493;51.730;5.294;2022-07-05T12:05:43;4.03;;;1.92;;
41817;SDS011;27493;51.730;5.294;2022-07-05T12:08:08;4.85;;;1.90;;
41817;SDS011;27493;51.730;5.294;2022-07-05T12:10:34;4.57;;;2.13;;
41817;SDS011;27493;51.730;5.294;2022-07-05T12:13:18;5.03;;;2.25;;
41817;SDS011;27493;51.730;5.294;2022-07-05T12:15:44;4.72;;;1.90;;
41817;SDS011;27493;51.730;5.294;2022-07-05T12:18:11;3.72;;;2.17;;
41817;SDS011;27493;51.730;5.294;2022-07-05T12:20:37;4.65;;;1.80;;
41817;SDS011;27493;51.730;5.294;2022-07-05T12:23:03;2.80;;;1.50;;
41817;SDS011;27493;51.730;5.294;2022-07-05T12:25:29;4.30;;;1.80;;
41817;SDS011;27493;51.730;5.294;2022-07-05T12:27:55;6.10;;;2.00;;
41817;SDS011;27493;51.730;5.294;2022-07-05T12:30:21;5.75;;;2.20;;
41817;SDS011;27493;51.730;5.294;2022-07-05T12:35:28;4.25;;;1.65;;
41817;SDS011;27493;51.730;5.294;2022-07-05T12:37:54;3.78;;;1.70;;
41817;SDS011;27493;51.730;5.294;2022-07-05T12:40:21;4.00;;;1.80;;
41817;SDS011;27493;51.730;5.294;2022-07-05T12:42:46;4.78;;;1.73;;
41817;SDS011;27493;51.730;5.294;2022-07-05T12:45:15;3.70;;;1.80;;
41817;SDS011;27493;51.730;5.294;2022-07-05T12:47:50;4.07;;;2.17;;
41817;SDS011;27493;51.730;5.294;2022-07-05T12:50:16;6.20;;;1.85;;
41817;SDS011;27493;51.730;5.294;2022-07-05T12:52:57;4.00;;;1.50;;
41817;SDS011;27493;51.730;5.294;2022-07-05T12:55:23;4.68;;;1.70;;
41817;SDS011;27493;51.730;5.294;2022-07-05T12:58:07;4.65;;;2.05;;
41817;SDS011;27493;51.730;5.294;2022-07-05T13:00:33;4.55;;;1.70;;
41817;SDS011;27493;51.730;5.294;2022-07-05T13:02:58;8.75;;;2.10;;
41817;SDS011;27493;51.730;5.294;2022-07-05T13:05:24;3.38;;;1.90;;
41817;SDS011;27493;51.730;5.294;2022-07-05T13:07:49;5.10;;;1.60;;
41817;SDS011;27493;51.730;5.294;2022-07-05T13:10:19;3.28;;;1.73;;
41817;SDS011;27493;51.730;5.294;2022-07-05T13:12:45;3.20;;;1.70;;
41817;SDS011;27493;51.730;5.294;2022-07-05T13:15:10;6.15;;;1.70;;
41817;SDS011;27493;51.730;5.294;2022-07-05T13:17:36;3.85;;;1.70;;
41817;SDS011;27493;51.730;5.294;2022-07-05T13:20:02;2.95;;;1.52;;
41817;SDS011;27493;51.730;5.294;2022-07-05T13:22:28;4.40;;;1.58;;
41817;SDS011;27493;51.730;5.294;2022-07-05T13:24:53;5.43;;;1.73;;
41817;SDS011;27493;51.730;5.294;2022-07-05T13:27:19;3.00;;;1.55;;
41817;SDS011;27493;51.730;5.294;2022-07-05T13:29:44;2.08;;;1.40;;
41817;SDS011;27493;51.730;5.294;2022-07-05T13:32:10;4.75;;;1.60;;
41817;SDS011;27493;51.730;5.294;2022-07-05T13:34:35;5.10;;;1.35;;
41817;SDS011;27493;51.730;5.294;2022-07-05T13:37:00;4.13;;;1.30;;
41817;SDS011;27493;51.730;5.294;2022-07-05T13:39:26;4.68;;;1.88;;
41817;SDS011;27493;51.730;5.294;2022-07-05T13:41:52;1.63;;;1.45;;
41817;SDS011;27493;51.730;5.294;2022-07-05T13:44:18;2.35;;;1.63;;
41817;SDS011;27493;51.730;5.294;2022-07-05T13:46:43;2.75;;;1.27;;
41817;SDS011;27493;51.730;5.294;2022-07-05T13:49:08;2.15;;;1.45;;
41817;SDS011;27493;51.730;5.294;2022-07-05T13:51:34;4.35;;;1.45;;
41817;SDS011;27493;51.730;5.294;2022-07-05T13:53:59;2.35;;;1.38;;
41817;SDS011;27493;51.730;5.294;2022-07-05T13:56:24;3.30;;;1.50;;
41817;SDS011;27493;51.730;5.294;2022-07-05T13:58:51;3.22;;;1.20;;
41817;SDS011;27493;51.730;5.294;2022-07-05T14:01:16;4.97;;;1.40;;
41817;SDS011;27493;51.730;5.294;2022-07-05T14:03:44;2.88;;;1.20;;
41817;SDS011;27493;51.730;5.294;2022-07-05T14:06:10;2.65;;;1.17;;
41817;SDS011;27493;51.730;5.294;2022-07-05T14:08:35;1.75;;;1.20;;
41817;SDS011;27493;51.730;5.294;2022-07-05T14:11:00;5.35;;;1.50;;
41817;SDS011;27493;51.730;5.294;2022-07-05T14:13:26;4.15;;;1.33;;
41817;SDS011;27493;51.730;5.294;2022-07-05T14:15:52;2.42;;;1.40;;
41817;SDS011;27493;51.730;5.294;2022-07-05T14:18:18;2.40;;;1.30;;
41817;SDS011;27493;51.730;5.294;2022-07-05T14:20:44;2.22;;;1.30;;
41817;SDS011;27493;51.730;5.294;2022-07-05T14:23:09;3.55;;;1.80;;
41817;SDS011;27493;51.730;5.294;2022-07-05T14:25:35;4.13;;;1.33;;
41817;SDS011;27493;51.730;5.294;2022-07-05T14:28:00;4.40;;;1.50;;
41817;SDS011;27493;51.730;5.294;2022-07-05T14:30:26;2.65;;;1.27;;
41817;SDS011;27493;51.730;5.294;2022-07-05T14:32:53;3.13;;;1.80;;
41817;SDS011;27493;51.730;5.294;2022-07-05T14:35:18;2.50;;;1.27;;
41817;SDS011;27493;51.730;5.294;2022-07-05T14:37:43;4.63;;;1.45;;
41817;SDS011;27493;51.730;5.294;2022-07-05T14:40:09;1.50;;;1.30;;
41817;SDS011;27493;51.730;5.294;2022-07-05T14:42:34;2.40;;;1.30;;
41817;SDS011;27493;51.730;5.294;2022-07-05T14:44:59;2.70;;;1.40;;
41817;SDS011;27493;51.730;5.294;2022-07-05T14:47:24;2.25;;;1.25;;
41817;SDS011;27493;51.730;5.294;2022-07-05T14:49:51;4.13;;;1.40;;
41817;SDS011;27493;51.730;5.294;2022-07-05T14:52:17;3.55;;;1.40;;
41817;SDS011;27493;51.730;5.294;2022-07-05T14:54:42;2.38;;;1.27;;
41817;SDS011;27493;51.730;5.294;2022-07-05T14:57:07;2.53;;;1.30;;